»·PEaware :: N566EB KONT-KIFP

N566EB :: KONT-KIFP

FLIGHT INFORMATION

Flight Status: Arrived
Operator: Privately registered:
United States
More flights under this callsign
Pilot: Eric B. (26552)
Aircraft: Diamond DA-40
(DA40)
More flights by this aircraft type
Origin: KONT Ontario Intl
United States
Destination: KIFP Laughlin/Bullhead Intl
United States
More flights between these airports :: More routes between these airports
Route:
File this flight plan on PilotEdge
Remarks: RRIZE V442 HEC V8 GFS
Altitude:
(Current/Filed)
7,500ft
Speed:
(Current/Filed)
125kts
Departed: 24-Sep-22 10:46 AM
Arrived: 24-Sep-22 12:10 PM
Distance/Time
Traveled:
164nm/1:23
Distance/Time
To Go:
Arrived

Flight Plot

Page will automatically refresh every two minutes.

Flight plan parsing failed; only flown route is shown


Map Options




Map Legend


Flown Route
Filed Route
Departure Airport
Arrival Airport
Navaid (VOR, NDB)
Fix

Horizontal Profiles

Position Reports

Time Latitude Longitude Heading Altitude Ground
Speed
24-Sep-22 10:10 34.053222 -117.615947 46 941ft 0kts
24-Sep-22 10:11 34.053222 -117.615947 46 941ft 0kts
24-Sep-22 10:12 34.053222 -117.615947 46 941ft 0kts
24-Sep-22 10:13 34.053222 -117.615947 46 941ft 0kts
24-Sep-22 10:14 34.053222 -117.615947 46 941ft 0kts
24-Sep-22 10:15 34.053222 -117.615947 46 941ft 0kts
24-Sep-22 10:16 34.053222 -117.615947 46 941ft 0kts
24-Sep-22 10:17 34.053222 -117.615947 46 941ft 0kts
24-Sep-22 10:18 34.053222 -117.615947 46 941ft 0kts
24-Sep-22 10:19 34.053222 -117.615947 46 941ft 0kts
24-Sep-22 10:20 34.053222 -117.615947 46 941ft 0kts
24-Sep-22 10:21 34.053222 -117.615947 46 941ft 0kts
24-Sep-22 10:22 34.053222 -117.615947 46 941ft 0kts
24-Sep-22 10:23 34.053222 -117.615947 46 941ft 0kts
24-Sep-22 10:24 34.053222 -117.615947 46 941ft 0kts
24-Sep-22 10:25 34.053222 -117.615947 46 941ft 0kts
24-Sep-22 10:26 34.053222 -117.615947 46 941ft 0kts
24-Sep-22 10:27 34.053222 -117.615947 46 941ft 0kts
24-Sep-22 10:28 34.053222 -117.615947 46 941ft 0kts
24-Sep-22 10:29 34.053222 -117.615947 46 941ft 0kts
24-Sep-22 10:30 34.053222 -117.615947 46 941ft 0kts
24-Sep-22 10:31 34.053222 -117.615947 46 941ft 0kts
24-Sep-22 10:32 34.053222 -117.615947 46 941ft 0kts
24-Sep-22 10:33 34.053222 -117.615947 46 941ft 0kts
24-Sep-22 10:33 34.053222 -117.615947 46 941ft 0kts
24-Sep-22 10:35 34.053169 -117.615320 186 941ft 2kts
24-Sep-22 10:36 34.053074 -117.615388 213 941ft 0kts
24-Sep-22 10:37 34.053074 -117.615388 213 941ft 0kts
24-Sep-22 10:37 34.053192 -117.615190 2 942ft 0kts
24-Sep-22 10:38 34.053496 -117.615197 358 942ft 10kts
24-Sep-22 10:39 34.053868 -117.610682 89 939ft 24kts
24-Sep-22 10:41 34.053868 -117.601584 89 935ft 20kts
24-Sep-22 10:41 34.053873 -117.595494 90 935ft 23kts
24-Sep-22 10:42 34.053880 -117.586759 89 930ft 25kts
24-Sep-22 10:43 34.054110 -117.582810 24 931ft 0kts
24-Sep-22 10:44 34.054110 -117.582810 24 931ft 0kts
24-Sep-22 10:45 34.054993 -117.589816 270 981ft 71kts
24-Sep-22 10:46 34.053799 -117.618266 266 1761ft 100kts
24-Sep-22 10:47 34.042817 -117.617580 68 2627ft 100kts
24-Sep-22 10:48 34.053347 -117.581718 71 2941ft 127kts
24-Sep-22 10:49 34.064759 -117.540549 71 3171ft 128kts
24-Sep-22 10:50 34.075995 -117.499601 72 3580ft 126kts
24-Sep-22 10:51 34.087132 -117.459417 71 4086ft 122kts
24-Sep-22 10:52 34.099281 -117.421916 68 4744ft 119kts
24-Sep-22 10:53 34.120587 -117.394810 22 5404ft 123kts
24-Sep-22 10:54 34.152218 -117.378695 26 6075ft 124kts
24-Sep-22 10:55 34.183414 -117.362367 26 6736ft 121kts
24-Sep-22 10:56 34.215052 -117.345584 26 7386ft 123kts
24-Sep-22 10:57 34.246161 -117.327487 28 8037ft 121kts
24-Sep-22 10:58 34.276024 -117.309139 27 8699ft 120kts
24-Sep-22 10:59 34.305184 -117.290665 28 9390ft 115kts
24-Sep-22 11:00 34.338978 -117.269161 28 9538ft 154kts
24-Sep-22 11:01 34.376500 -117.245203 28 9540ft 145kts
24-Sep-22 11:02 34.411029 -117.223201 28 9543ft 138kts
24-Sep-22 11:03 34.446337 -117.200434 28 9456ft 145kts
24-Sep-22 11:04 34.481980 -117.177624 28 9454ft 145kts
24-Sep-22 11:05 34.517691 -117.154842 28 9448ft 143kts
24-Sep-22 11:06 34.553209 -117.131983 28 9442ft 143kts
24-Sep-22 11:07 34.577376 -117.096243 63 9416ft 137kts
24-Sep-22 11:08 34.595828 -117.055257 63 9401ft 140kts
24-Sep-22 11:09 34.612816 -117.012786 66 9381ft 139kts
24-Sep-22 11:10 34.629362 -116.970974 66 9363ft 136kts
24-Sep-22 11:11 34.645418 -116.928832 68 9373ft 138kts
24-Sep-22 11:12 34.660974 -116.885286 69 9382ft 141kts
24-Sep-22 11:13 34.676330 -116.842188 68 9384ft 140kts
24-Sep-22 11:14 34.691433 -116.798380 71 9389ft 139kts
24-Sep-22 11:15 34.705108 -116.753848 71 9390ft 138kts
24-Sep-22 11:16 34.718641 -116.709275 71 9396ft 142kts
24-Sep-22 11:17 34.732152 -116.664603 73 9387ft 137kts
24-Sep-22 11:18 34.744268 -116.620235 73 9377ft 136kts
24-Sep-22 11:19 34.756218 -116.576673 70 9367ft 136kts
24-Sep-22 11:20 34.770391 -116.534472 69 9351ft 133kts
24-Sep-22 11:21 34.784606 -116.492197 69 9358ft 138kts
24-Sep-22 11:22 34.798788 -116.449156 72 9348ft 136kts
24-Sep-22 11:23 34.811702 -116.406128 68 9329ft 134kts
24-Sep-22 11:24 34.826552 -116.364069 68 9316ft 136kts
24-Sep-22 11:25 34.841611 -116.321031 68 9323ft 140kts
24-Sep-22 11:26 34.852342 -116.276584 76 9312ft 135kts
24-Sep-22 11:27 34.862405 -116.232585 76 9309ft 135kts
24-Sep-22 11:28 34.872474 -116.188111 76 9309ft 135kts
24-Sep-22 11:29 34.882553 -116.143886 76 9319ft 135kts
24-Sep-22 11:30 34.893201 -116.099628 71 9319ft 138kts
24-Sep-22 11:31 34.906754 -116.055879 71 9323ft 137kts
24-Sep-22 11:32 34.920049 -116.012825 71 9319ft 134kts
24-Sep-22 11:33 34.933085 -115.970524 71 9314ft 132kts
24-Sep-22 11:34 34.945963 -115.928395 71 9322ft 132kts
24-Sep-22 11:35 34.958758 -115.886189 71 9321ft 130kts
24-Sep-22 11:36 34.971448 -115.844445 71 9332ft 131kts
24-Sep-22 11:37 34.983065 -115.802108 73 9342ft 134kts
24-Sep-22 11:38 34.994957 -115.758024 73 9357ft 137kts
24-Sep-22 11:39 35.006830 -115.713545 73 9361ft 140kts
24-Sep-22 11:40 35.018829 -115.668160 73 9365ft 139kts
24-Sep-22 11:41 35.030724 -115.623277 72 9367ft 140kts
24-Sep-22 11:42 35.042795 -115.577545 73 9373ft 142kts
24-Sep-22 11:43 35.054721 -115.531401 73 9380ft 143kts
24-Sep-22 11:44 35.066041 -115.484138 79 9383ft 145kts
24-Sep-22 11:45 35.073714 -115.435613 79 9540ft 138kts
24-Sep-22 11:46 35.081263 -115.388452 79 9553ft 143kts
24-Sep-22 11:47 35.090663 -115.340505 72 9555ft 146kts
24-Sep-22 11:48 35.102283 -115.293051 73 9557ft 145kts
24-Sep-22 11:49 35.115446 -115.246617 69 9555ft 144kts
24-Sep-22 11:50 35.128986 -115.199859 69 9558ft 145kts
24-Sep-22 11:51 35.136080 -115.151390 84 8953ft 138kts
24-Sep-22 11:52 35.139534 -115.108227 83 8194ft 122kts
24-Sep-22 11:53 35.142895 -115.067222 83 7619ft 120kts
24-Sep-22 11:54 35.144557 -115.026722 86 7148ft 117kts
24-Sep-22 11:55 35.145755 -114.986774 86 6676ft 117kts
24-Sep-22 11:56 35.146758 -114.946434 87 6209ft 122kts
24-Sep-22 11:57 35.147574 -114.905311 87 5728ft 121kts
24-Sep-22 11:58 35.147921 -114.863734 87 5259ft 124kts
24-Sep-22 11:59 35.150112 -114.822152 76 4776ft 118kts
24-Sep-22 12:00 35.157175 -114.782907 70 4270ft 121kts
24-Sep-22 12:01 35.165881 -114.742111 71 3998ft 121kts
24-Sep-22 12:02 35.173884 -114.703285 72 3945ft 116kts
24-Sep-22 12:03 35.178389 -114.662844 83 3297ft 119kts
24-Sep-22 12:04 35.179231 -114.621851 83 2438ft 119kts
24-Sep-22 12:05 35.168626 -114.586578 165 1743ft 123kts
24-Sep-22 12:06 35.138466 -114.583523 172 1618ft 96kts
24-Sep-22 12:07 35.122473 -114.566527 67 1468ft 98kts
24-Sep-22 12:08 35.139637 -114.558154 352 842ft 64kts
24-Sep-22 12:09 35.151406 -114.557937 73 681ft 4kts
24-Sep-22 12:10 35.152726 -114.557824 356 676ft 15kts
24-Sep-22 12:11 35.156173 -114.556460 25 664ft 10kts
24-Sep-22 12:12 35.158521 -114.556579 354 656ft 0kts
24-Sep-22 12:13 35.160844 -114.555973 203 648ft 0kts
24-Sep-22 12:14 35.160818 -114.556051 261 648ft 0kts
24-Sep-22 12:15 35.160818 -114.556051 261 648ft 0kts

Navigation Log

Ident Type
Flight plan parsing failed, navigation log unavailable